Time;durP1;ratioP1;P1;durP2;ratioP2;P2;SDS_P1;SDS_P2;PMS_P1;PMS_P2;Temp;Humidity;BMP_temperature;BMP_pressure;BME280_temperature;BME280_humidity;BME280_pressure;Samples;Min_cycle;Max_cycle;Signal;HPM_P1;HPM_P2
2021/04/29 00:02:13;;;;;;;9.58;5.50;;;;;;;6.38;58.85;100845.53;1666745;84;21100;-45
2021/04/29 00:04:41;;;;;;;14.53;7.87;;;;;;;6.35;59.05;100845.18;1726290;81;21146;-45
2021/04/29 00:07:08;;;;;;;12.18;7.47;;;;;;;6.32;59.35;100839.96;1729661;81;21115;-45
2021/04/29 00:09:36;;;;;;;12.03;6.87;;;;;;;6.28;59.63;100848.48;1726721;82;21126;-42
2021/04/29 00:12:06;;;;;;;11.43;6.78;;;;;;;6.25;59.92;100845.95;1728631;81;21169;-40
2021/04/29 00:14:33;;;;;;;9.63;6.33;;;;;;;6.23;60.25;100845.14;1729104;81;21161;-41
2021/04/29 00:17:01;;;;;;;9.43;5.83;;;;;;;6.21;60.48;100844.32;1726263;81;21153;-42
2021/04/29 00:19:29;;;;;;;10.13;5.75;;;;;;;6.21;60.74;100848.76;1730488;81;21177;-42
2021/04/29 00:21:57;;;;;;;9.55;6.12;;;;;;;6.16;60.95;100847.59;1726993;81;21665;-42
2021/04/29 00:24:25;;;;;;;9.25;5.85;;;;;;;6.14;61.12;100851.20;1736549;81;21122;-42
2021/04/29 00:26:53;;;;;;;10.53;6.15;;;;;;;6.11;61.21;100848.67;1726890;81;21956;-40
2021/04/29 00:29:21;;;;;;;7.33;5.50;;;;;;;6.08;61.52;100856.27;1727966;81;21145;-42
2021/04/29 00:31:48;;;;;;;8.43;5.62;;;;;;;6.03;61.78;100851.58;1730250;82;21142;-41
2021/04/29 00:34:16;;;;;;;6.95;5.15;;;;;;;6.01;61.95;100850.30;1728640;82;21142;-40
2021/04/29 00:36:44;;;;;;;7.95;4.78;;;;;;;6.01;62.05;100858.70;1725356;81;21493;-40
2021/04/29 00:39:12;;;;;;;6.22;4.83;;;;;;;5.98;62.12;100849.08;1733328;82;21129;-40
2021/04/29 00:41:39;;;;;;;5.80;4.55;;;;;;;5.98;62.19;100849.55;1735930;80;21153;-43
2021/04/29 00:44:07;;;;;;;5.37;4.00;;;;;;;5.96;62.28;100850.05;1744550;81;21145;-43
2021/04/29 00:46:36;;;;;;;7.92;4.28;;;;;;;5.92;62.37;100851.02;1735924;80;21182;-44
2021/04/29 00:49:04;;;;;;;7.05;4.60;;;;;;;5.87;62.50;100853.82;1714288;82;21189;-42
2021/04/29 00:51:32;;;;;;;6.53;4.50;;;;;;;5.86;62.53;100846.81;1743973;82;21168;-43
2021/04/29 00:54:01;;;;;;;8.73;5.30;;;;;;;5.82;62.58;100848.70;1739617;81;21157;-42
2021/04/29 00:56:29;;;;;;;6.20;4.37;;;;;;;5.81;62.61;100850.06;1741308;80;21169;-43
2021/04/29 00:58:58;;;;;;;6.45;4.35;;;;;;;5.76;62.73;100842.73;1738384;82;21113;-44
2021/04/29 01:01:26;;;;;;;7.17;4.12;;;;;;;5.74;62.86;100847.20;1740478;82;21551;-44
2021/04/29 01:03:58;;;;;;;7.33;4.50;;;;;;;5.73;63.04;100840.20;1739524;81;21133;-42
2021/04/29 01:06:39;;;;;;;6.58;4.62;;;;;;;5.72;63.19;100845.95;1740956;80;21558;-43
2021/04/29 01:09:21;;;;;;;7.05;4.60;;;;;;;5.70;63.27;100838.98;1737219;81;21153;-45
2021/04/29 01:12:00;;;;;;;9.85;6.25;;;;;;;5.67;63.41;100832.01;1742820;80;21573;-42
2021/04/29 01:14:30;;;;;;;19.40;14.55;;;;;;;5.63;63.64;100836.98;1732651;80;21113;-41
2021/04/29 01:16:58;;;;;;;19.50;14.55;;;;;;;5.60;63.85;100831.80;1737011;80;21172;-41
2021/04/29 01:19:44;;;;;;;10.05;8.18;;;;;;;5.57;63.98;100835.41;1741960;81;21137;-41
2021/04/29 01:22:14;;;;;;;9.88;6.20;;;;;;;5.55;64.18;100836.37;1741715;81;21570;-43
2021/04/29 01:25:05;;;;;;;10.65;6.50;;;;;;;5.53;64.32;100835.55;1739478;81;21145;-42
2021/04/29 01:27:32;;;;;;;10.32;7.37;;;;;;;5.49;64.50;100835.22;1715608;82;21177;-43
2021/04/29 01:30:03;;;;;;;12.58;7.97;;;;;;;5.47;64.65;100838.37;1718615;82;21148;-45
2021/04/29 01:32:33;;;;;;;14.95;9.05;;;;;;;5.43;64.82;100836.29;1735482;82;21130;-44
2021/04/29 01:35:02;;;;;;;13.10;9.93;;;;;;;5.40;64.92;100833.28;1736526;82;21295;-45
2021/04/29 01:37:30;;;;;;;18.42;11.20;;;;;;;5.38;65.02;100835.11;1733595;82;21550;-43
2021/04/29 01:39:58;;;;;;;18.55;12.47;;;;;;;5.37;65.14;100840.47;1738025;81;21189;-42
2021/04/29 01:42:26;;;;;;;19.25;13.90;;;;;;;5.34;65.22;100841.42;1725405;81;21141;-44
2021/04/29 01:44:53;;;;;;;19.57;14.85;;;;;;;5.33;65.30;100846.29;1730740;82;21157;-41
2021/04/29 01:47:21;;;;;;;22.65;14.28;;;;;;;5.30;65.43;100841.09;1732247;81;21177;-43
2021/04/29 01:49:49;;;;;;;23.87;14.90;;;;;;;5.30;65.57;100845.53;1731465;81;21170;-42
2021/04/29 01:52:17;;;;;;;24.30;16.93;;;;;;;5.27;65.79;100842.98;1729390;81;22057;-42
2021/04/29 01:54:45;;;;;;;20.62;14.73;;;;;;;5.23;65.97;100846.63;1730046;81;21335;-43
2021/04/29 01:57:13;;;;;;;22.30;14.25;;;;;;;5.20;66.09;100843.62;1731359;82;21142;-42
2021/04/29 01:59:42;;;;;;;19.07;12.25;;;;;;;5.18;66.23;100844.12;1734443;82;21535;-42
2021/04/29 02:02:10;;;;;;;17.52;12.95;;;;;;;5.15;66.45;100842.89;1724560;81;21166;-42
2021/04/29 02:04:39;;;;;;;19.48;13.32;;;;;;;5.12;66.65;100846.50;1729163;81;21656;-43
2021/04/29 02:07:07;;;;;;;15.60;11.80;;;;;;;5.14;66.87;100850.39;1731035;81;21134;-42
2021/04/29 02:09:35;;;;;;;16.45;11.65;;;;;;;5.14;66.94;100850.39;1728305;82;21153;-41
2021/04/29 02:12:03;;;;;;;16.48;11.40;;;;;;;5.13;66.99;100848.22;1730378;81;21979;-42
2021/04/29 02:14:39;;;;;;;14.47;10.90;;;;;;;5.14;67.07;100851.29;1726919;81;21555;-41
2021/04/29 02:17:36;;;;;;;15.10;10.03;;;;;;;5.15;67.13;100848.19;1729729;81;21145;-44
2021/04/29 02:20:11;;;;;;;14.55;10.40;;;;;;;5.17;67.13;100852.52;1796620;78;22961;-43
2021/04/29 02:22:40;;;;;;;12.00;9.38;;;;;;;5.12;67.16;100848.28;1778597;80;21181;-42
2021/04/29 02:25:11;;;;;;;57.10;44.70;;;;;;;5.10;67.19;100851.42;1718215;81;21591;-42
2021/04/29 02:27:38;;;;;;;34.92;24.50;;;;;;;5.11;67.21;100849.17;1723636;81;21731;-45
2021/04/29 02:30:11;;;;;;;20.08;14.87;;;;;;;5.11;67.17;100857.11;1720798;81;21185;-41
2021/04/29 02:32:39;;;;;;;13.80;10.48;;;;;;;5.09;67.12;100854.96;1718181;81;21166;-42
2021/04/29 02:35:09;;;;;;;15.95;9.55;;;;;;;5.03;67.06;100857.34;1718083;82;21595;-41
2021/04/29 02:37:37;;;;;;;15.18;10.00;;;;;;;4.98;67.14;100850.86;1724068;81;21161;-42
2021/04/29 02:40:08;;;;;;;15.85;9.40;;;;;;;4.97;67.13;100857.06;1741906;81;21581;-42
2021/04/29 02:42:35;;;;;;;12.47;9.18;;;;;;;4.97;67.15;100857.53;1748594;80;21581;-41
2021/04/29 02:45:08;;;;;;;15.10;9.43;;;;;;;4.95;67.25;100852.28;1717857;81;21180;-41
2021/04/29 02:47:38;;;;;;;12.43;9.30;;;;;;;4.95;67.32;100857.56;1736639;81;21138;-41
2021/04/29 02:50:11;;;;;;;14.78;9.48;;;;;;;4.93;67.43;100858.05;1732929;81;21118;-40
2021/04/29 02:52:39;;;;;;;14.98;10.20;;;;;;;4.90;67.51;100857.30;1702410;82;21568;-40
2021/04/29 02:55:08;;;;;;;14.60;8.68;;;;;;;4.86;67.69;100855.17;1739810;81;21172;-40
2021/04/29 02:57:35;;;;;;;13.70;9.03;;;;;;;4.84;67.91;100856.13;1747076;81;21169;-42
2021/04/29 03:00:06;;;;;;;15.80;10.18;;;;;;;4.81;68.17;100852.27;1730890;81;21463;-42
2021/04/29 03:02:34;;;;;;;15.55;9.70;;;;;;;4.78;68.42;100847.94;1736582;81;21146;-43
2021/04/29 03:05:01;;;;;;;13.22;9.15;;;;;;;4.78;68.67;100851.89;1734606;81;21145;-43
2021/04/29 03:07:30;;;;;;;13.62;10.10;;;;;;;4.79;68.90;100858.94;1734727;81;21158;-44
2021/04/29 03:09:58;;;;;;;15.83;11.33;;;;;;;4.76;69.12;100859.00;1734787;81;21126;-42
2021/04/29 03:12:26;;;;;;;15.35;10.72;;;;;;;4.75;69.33;100862.09;1725875;81;21413;-44
2021/04/29 03:14:55;;;;;;;16.42;10.88;;;;;;;4.75;69.71;100848.03;1729918;81;21133;-42
2021/04/29 03:17:23;;;;;;;12.60;8.85;;;;;;;4.75;69.86;100848.03;1736648;81;21577;-44
2021/04/29 03:19:52;;;;;;;15.13;9.18;;;;;;;4.75;70.06;100850.67;1724281;81;21151;-44
2021/04/29 03:22:19;;;;;;;13.85;8.85;;;;;;;4.74;70.30;100850.27;1722658;81;21603;-42
2021/04/29 03:30:14;;;;;;;12.47;8.13;;;;;;;4.83;71.09;100859.23;1794972;77;22124;-43
2021/04/29 03:32:44;;;;;;;13.58;9.45;;;;;;;4.82;71.34;100863.27;1761915;80;21149;-43
2021/04/29 03:35:12;;;;;;;12.50;8.55;;;;;;;4.87;71.55;100854.75;1765786;79;21117;-44
2021/04/29 03:37:39;;;;;;;14.30;8.48;;;;;;;4.92;71.75;100861.63;1764461;79;21148;-44
2021/04/29 03:40:08;;;;;;;11.45;8.18;;;;;;;5.01;71.87;100864.91;1771378;79;21133;-44
2021/04/29 03:42:38;;;;;;;9.03;7.28;;;;;;;5.08;72.06;100859.85;1772739;79;21086;-45
2021/04/29 03:45:06;;;;;;;9.45;6.72;;;;;;;5.14;72.04;100860.55;1768935;79;21124;-43
2021/04/29 03:47:34;;;;;;;9.88;6.37;;;;;;;5.24;71.93;100860.25;1768120;80;21585;-43
2021/04/29 03:50:02;;;;;;;18.50;14.25;;;;;;;5.33;71.99;100862.62;1745304;80;21144;-41
2021/04/29 03:52:30;;;;;;;13.30;10.08;;;;;;;5.43;72.05;100862.74;1748283;80;21165;-43
2021/04/29 03:55:09;;;;;;;13.80;7.67;;;;;;;5.52;72.22;100859.82;1700468;82;21165;-45
2021/04/29 03:57:38;;;;;;;12.07;7.70;;;;;;;5.61;72.35;100858.65;1679515;83;21594;-43
2021/04/29 04:00:08;;;;;;;11.28;6.83;;;;;;;5.69;72.51;100861.91;1680733;83;21164;-45
2021/04/29 04:02:35;;;;;;;9.90;7.50;;;;;;;5.76;72.43;100862.58;1677918;83;21184;-44
2021/04/29 04:05:07;;;;;;;9.30;6.70;;;;;;;5.84;72.34;100859.22;1710438;82;21185;-41
2021/04/29 04:07:35;;;;;;;8.55;5.87;;;;;;;5.91;72.01;100866.05;1684732;83;21154;-41
2021/04/29 04:10:04;;;;;;;10.05;5.65;;;;;;;5.98;71.58;100864.11;1687885;83;21573;-42
2021/04/29 04:12:32;;;;;;;6.92;5.12;;;;;;;6.04;71.29;100866.53;1682323;83;21145;-42
2021/04/29 04:15:00;;;;;;;8.68;6.20;;;;;;;6.09;70.94;100859.30;1677771;84;21154;-42
2021/04/29 04:17:28;;;;;;;8.25;5.47;;;;;;;6.14;70.70;100861.80;1694888;83;21292;-42
2021/04/29 04:19:57;;;;;;;6.90;5.85;;;;;;;6.19;70.52;100859.39;1685736;83;21141;-48
2021/04/29 04:22:25;;;;;;;7.75;5.33;;;;;;;6.23;70.31;100855.73;1714025;82;21129;-45
2021/04/29 04:24:53;;;;;;;7.22;5.40;;;;;;;6.29;70.14;100854.64;1681383;83;21153;-44
2021/04/29 04:27:20;;;;;;;7.12;5.62;;;;;;;6.36;70.04;100856.63;1686008;83;21177;-45
2021/04/29 04:29:48;;;;;;;6.62;5.05;;;;;;;6.40;70.02;100851.61;1664564;85;21145;-45
2021/04/29 04:32:16;;;;;;;6.12;4.60;;;;;;;6.48;69.94;100858.86;1728975;81;21153;-43
2021/04/29 04:34:45;;;;;;;6.65;4.87;;;;;;;6.55;69.91;100859.48;1730900;81;21125;-45
2021/04/29 04:37:12;;;;;;;6.83;4.70;;;;;;;6.63;69.90;100862.28;1728833;81;21153;-44
2021/04/29 04:39:41;;;;;;;6.70;4.80;;;;;;;6.70;69.95;100862.47;1731282;81;21110;-45
2021/04/29 04:42:08;;;;;;;6.00;4.12;;;;;;;6.78;70.00;100856.88;1728605;81;21149;-43
2021/04/29 04:44:36;;;;;;;5.10;4.53;;;;;;;6.86;69.91;100859.25;1728302;81;21191;-43
2021/04/29 04:47:04;;;;;;;4.67;4.15;;;;;;;6.93;69.78;100861.61;1728170;81;22065;-42
2021/04/29 04:49:32;;;;;;;4.92;3.70;;;;;;;7.01;69.61;100861.33;1729104;81;21126;-41
2021/04/29 04:52:00;;;;;;;5.30;4.20;;;;;;;7.08;69.45;100861.94;1727373;81;21106;-42
2021/04/29 04:54:28;;;;;;;5.83;4.30;;;;;;;7.15;69.26;100861.64;1729943;82;21125;-45
2021/04/29 04:56:55;;;;;;;7.83;4.05;;;;;;;7.23;68.98;100859.16;1725718;81;21169;-46
2021/04/29 04:59:23;;;;;;;5.92;3.83;;;;;;;7.28;68.80;100866.05;1726217;81;21558;-45
2021/04/29 05:01:51;;;;;;;4.92;3.72;;;;;;;7.33;68.66;100865.84;1726492;82;21153;-48
2021/04/29 05:04:18;;;;;;;5.35;4.00;;;;;;;7.38;68.52;100862.55;1732848;81;21142;-48
2021/04/29 05:06:46;;;;;;;6.62;3.72;;;;;;;7.43;68.24;100872.98;1668419;84;21158;-48
2021/04/29 05:09:16;;;;;;;4.42;3.45;;;;;;;7.47;67.74;100870.63;1730078;81;21141;-46
2021/04/29 05:11:43;;;;;;;4.53;4.12;;;;;;;7.52;67.50;100872.16;1729163;81;21182;-45
2021/04/29 05:14:11;;;;;;;5.90;4.22;;;;;;;7.57;66.98;100877.30;1726317;81;21157;-43
2021/04/29 05:16:40;;;;;;;5.58;3.60;;;;;;;7.62;66.95;100870.01;1730068;81;21157;-45
2021/04/29 05:19:07;;;;;;;4.97;4.15;;;;;;;7.68;66.66;100869.75;1668268;84;21173;-43
2021/04/29 05:21:36;;;;;;;7.90;4.70;;;;;;;7.80;66.14;100860.44;1729686;81;21145;-41
2021/04/29 05:24:04;;;;;;;5.12;4.35;;;;;;;7.80;66.14;100860.44;1731263;81;21161;-44
2021/04/29 05:26:31;;;;;;;4.70;3.98;;;;;;;7.86;65.81;100870.82;1732813;81;21158;-46
2021/04/29 05:28:59;;;;;;;7.10;4.12;;;;;;;7.92;65.50;100865.71;1733950;80;21165;-44
2021/04/29 05:31:27;;;;;;;6.15;4.45;;;;;;;7.98;65.29;100875.59;1738753;82;21149;-42
2021/04/29 05:33:55;;;;;;;4.62;3.72;;;;;;;8.03;65.08;100873.61;1737434;81;21145;-44
2021/04/29 05:36:24;;;;;;;7.17;4.97;;;;;;;8.09;64.86;100874.28;1737457;81;21813;-45
2021/04/29 05:38:52;;;;;;;5.15;4.45;;;;;;;8.15;64.73;100872.25;1742009;80;21141;-43
2021/04/29 05:41:20;;;;;;;6.90;4.65;;;;;;;8.23;64.43;100858.16;1739322;80;21153;-44
2021/04/29 05:43:48;;;;;;;5.67;5.00;;;;;;;8.29;63.77;100866.80;1739589;81;21129;-51
2021/04/29 05:46:15;;;;;;;5.83;5.08;;;;;;;8.35;63.63;100871.40;1737085;81;21565;-43
2021/04/29 05:48:44;;;;;;;6.35;5.40;;;;;;;8.48;63.82;100865.59;1733401;80;21699;-48
2021/04/29 05:51:12;;;;;;;6.80;5.40;;;;;;;8.54;63.62;100862.65;1736972;80;21191;-43
2021/04/29 05:53:40;;;;;;;5.53;5.03;;;;;;;8.54;63.62;100862.65;1742631;80;22037;-44
2021/04/29 05:56:08;;;;;;;8.08;5.65;;;;;;;8.61;63.70;100870.75;1743820;80;22270;-43
2021/04/29 05:58:35;;;;;;;6.70;5.42;;;;;;;8.68;63.30;100869.56;1741976;80;21144;-43
2021/04/29 06:01:03;;;;;;;6.92;5.67;;;;;;;8.73;63.14;100870.69;1740632;80;21860;-43
2021/04/29 06:03:32;;;;;;;6.45;5.50;;;;;;;8.81;63.19;100869.87;1737526;80;21117;-45
2021/04/29 06:05:59;;;;;;;6.47;5.42;;;;;;;8.87;63.01;100867.81;1740990;82;21440;-45
2021/04/29 06:08:27;;;;;;;6.90;5.15;;;;;;;8.94;62.61;100867.52;1741971;82;21133;-45
2021/04/29 06:10:55;;;;;;;6.70;5.20;;;;;;;9.00;62.55;100869.91;1743011;80;21161;-41
2021/04/29 06:13:23;;;;;;;7.10;5.65;;;;;;;9.05;62.06;100864.77;1735597;82;21481;-43
2021/04/29 06:15:53;;;;;;;6.45;5.45;;;;;;;9.10;60.99;100865.42;1739700;82;21142;-43
2021/04/29 06:18:27;;;;;;;6.90;5.67;;;;;;;9.17;60.82;100863.35;1744172;80;21134;-44
2021/04/29 06:21:33;;;;;;;6.25;5.10;;;;;;;9.22;60.57;100864.00;1734622;80;21165;-47
2021/04/29 06:24:04;;;;;;;6.78;5.53;;;;;;;9.27;60.72;100859.77;1734952;80;21137;-47
2021/04/29 06:26:32;;;;;;;14.23;5.78;;;;;;;9.37;61.03;100857.06;1698892;82;21617;-47
2021/04/29 06:28:59;;;;;;;6.67;5.45;;;;;;;9.45;61.20;100857.59;1681964;83;21165;-45
2021/04/29 06:31:28;;;;;;;6.20;5.17;;;;;;;9.53;61.33;100855.88;1686926;83;21283;-44
2021/04/29 06:33:56;;;;;;;8.53;5.12;;;;;;;9.60;60.34;100854.66;1694378;83;21608;-43
2021/04/29 06:36:24;;;;;;;7.15;5.03;;;;;;;9.68;60.13;100859.12;1688108;83;21160;-42
2021/04/29 06:38:56;;;;;;;8.05;5.55;;;;;;;9.75;60.25;100857.90;1668538;84;21166;-45
2021/04/29 06:41:33;;;;;;;6.58;4.85;;;;;;;9.91;60.38;100861.13;1773654;77;22987;-43
2021/04/29 06:44:07;;;;;;;8.58;6.25;;;;;;;9.96;60.06;100861.77;1771780;79;21117;-49
2021/04/29 06:46:37;;;;;;;8.30;4.78;;;;;;;10.07;60.00;100863.88;1750257;81;21703;-51
2021/04/29 06:49:06;;;;;;;5.75;4.50;;;;;;;10.16;59.58;100868.76;1733883;81;21189;-47
2021/04/29 06:51:34;;;;;;;6.83;4.90;;;;;;;10.26;59.37;100873.16;1730964;81;21125;-48
2021/04/29 06:54:06;;;;;;;6.20;4.60;;;;;;;10.34;59.21;100875.84;1730778;81;21128;-45
2021/04/29 06:56:35;;;;;;;5.20;3.65;;;;;;;10.44;58.55;100872.23;1726348;81;21120;-49
2021/04/29 06:59:05;;;;;;;6.80;4.37;;;;;;;10.52;57.39;100873.17;1729896;81;21168;-43
2021/04/29 07:01:36;;;;;;;6.00;4.47;;;;;;;10.58;57.61;100870.17;1730924;81;21287;-45
2021/04/29 07:04:10;;;;;;;6.95;4.72;;;;;;;10.65;56.79;100862.72;1734211;81;21148;-46
2021/04/29 07:06:41;;;;;;;6.28;4.05;;;;;;;10.72;56.98;100869.46;1735459;81;22058;-49
2021/04/29 07:09:08;;;;;;;9.33;5.47;;;;;;;10.81;56.41;100865.84;1731170;81;21113;-45
2021/04/29 07:11:36;;;;;;;5.08;3.70;;;;;;;10.88;55.72;100857.02;1734586;81;21152;-48
2021/04/29 07:14:05;;;;;;;6.83;4.62;;;;;;;10.94;55.90;100854.51;1723618;81;21136;-44
2021/04/29 07:16:33;;;;;;;4.78;4.08;;;;;;;11.00;55.84;100853.69;1732582;81;21141;-43
2021/04/29 07:19:02;;;;;;;7.17;4.80;;;;;;;11.08;54.82;100859.08;1730928;82;21662;-44
2021/04/29 07:21:29;;;;;;;7.03;4.08;;;;;;;11.14;53.78;100860.95;1734865;81;21568;-46
2021/04/29 07:23:57;;;;;;;4.35;3.37;;;;;;;11.18;54.07;100856.30;1737346;81;21322;-42
2021/04/29 07:26:25;;;;;;;4.80;3.25;;;;;;;11.23;53.78;100856.42;1734909;81;21651;-40
2021/04/29 07:28:53;;;;;;;4.42;3.70;;;;;;;11.30;53.80;100848.09;1734651;81;21125;-46
2021/04/29 07:31:21;;;;;;;4.62;3.75;;;;;;;11.38;53.35;100844.52;1735674;81;21484;-44
2021/04/29 07:33:49;;;;;;;5.08;4.50;;;;;;;11.46;52.90;100848.49;1734066;81;21124;-45
2021/04/29 07:36:17;;;;;;;5.42;4.10;;;;;;;11.55;52.49;100848.91;1734416;81;21161;-45
2021/04/29 07:38:45;;;;;;;6.28;4.05;;;;;;;11.61;51.67;100853.89;1731133;81;21679;-43
2021/04/29 07:41:13;;;;;;;5.55;4.10;;;;;;;11.67;51.52;100849.07;1726373;81;21675;-46
2021/04/29 07:43:40;;;;;;;8.18;4.30;;;;;;;11.77;50.91;100856.53;1722222;81;21664;-45
2021/04/29 07:46:08;;;;;;;5.25;4.53;;;;;;;11.82;50.33;100846.48;1714108;82;21453;-46
2021/04/29 07:48:36;;;;;;;7.80;4.30;;;;;;;11.84;50.95;100849.89;1790241;79;21368;-42
2021/04/29 07:51:04;;;;;;;11.45;4.67;;;;;;;11.87;50.48;100847.10;1783215;79;21180;-44
2021/04/29 07:53:31;;;;;;;5.83;3.85;;;;;;;11.89;50.28;100839.83;1780226;79;21561;-42
2021/04/29 07:55:59;;;;;;;6.92;5.03;;;;;;;11.95;50.92;100837.30;1776345;79;21598;-49
2021/04/29 07:58:27;;;;;;;5.40;4.28;;;;;;;12.00;50.18;100838.75;1783465;79;21144;-43
2021/04/29 08:00:56;;;;;;;7.62;4.55;;;;;;;12.05;50.01;100835.33;1786979;79;21685;-46
2021/04/29 08:03:24;;;;;;;5.83;4.30;;;;;;;12.12;50.16;100830.01;1781312;79;21168;-46
2021/04/29 08:05:52;;;;;;;5.75;4.53;;;;;;;12.18;50.01;100838.13;1778295;79;21152;-46
2021/04/29 08:08:20;;;;;;;7.03;4.50;;;;;;;12.26;49.96;100829.16;1773563;79;21283;-45
2021/04/29 08:10:47;;;;;;;7.70;5.12;;;;;;;12.33;49.44;100826.52;1777680;79;21658;-45
2021/04/29 08:13:15;;;;;;;7.90;5.25;;;;;;;12.42;49.35;100826.90;1780152;79;21575;-45
2021/04/29 08:15:44;;;;;;;6.87;5.10;;;;;;;12.46;48.39;100821.28;1775167;79;21133;-46
2021/04/29 08:18:12;;;;;;;9.78;5.40;;;;;;;12.50;48.79;100826.84;1778940;79;21097;-45
2021/04/29 08:20:40;;;;;;;10.85;5.17;;;;;;;12.54;48.65;100814.98;1771920;79;21149;-46
2021/04/29 08:23:07;;;;;;;6.28;4.53;;;;;;;12.59;49.24;100812.02;1777622;79;21144;-44
2021/04/29 08:25:36;;;;;;;9.50;4.75;;;;;;;12.62;48.11;100810.48;1782878;79;21153;-45
2021/04/29 08:28:04;;;;;;;8.50;4.87;;;;;;;12.66;47.99;100813.85;1779578;79;21794;-45
2021/04/29 08:30:32;;;;;;;9.08;6.08;;;;;;;12.68;48.02;100814.14;1778180;79;21619;-45
2021/04/29 08:33:00;;;;;;;8.28;5.58;;;;;;;12.75;48.32;100807.91;1774733;79;21141;-42
2021/04/29 08:35:27;;;;;;;6.97;4.85;;;;;;;12.83;48.50;100809.65;1779375;79;21156;-44
2021/04/29 08:37:55;;;;;;;8.60;5.22;;;;;;;12.92;48.22;100807.72;1779476;79;21155;-39
2021/04/29 08:40:24;;;;;;;6.97;5.17;;;;;;;13.00;48.97;100804.55;1781937;79;21109;-46
2021/04/29 08:42:51;;;;;;;4.58;3.75;;;;;;;13.10;48.98;100804.38;1781889;78;21124;-47
2021/04/29 08:45:19;;;;;;;5.37;4.00;;;;;;;13.20;48.91;100797.92;1786275;78;21155;-46
2021/04/29 08:47:53;;;;;;;6.80;4.25;;;;;;;13.31;48.70;100801.30;1790643;78;21159;-43
2021/04/29 08:50:23;;;;;;;5.30;3.87;;;;;;;13.42;46.73;100798.77;1788968;78;21128;-46
2021/04/29 08:52:51;;;;;;;7.55;3.60;;;;;;;13.47;46.13;100793.12;1788924;78;21140;-43
2021/04/29 08:55:24;;;;;;;4.00;3.55;;;;;;;13.47;45.39;100785.08;1790361;78;21128;-44
2021/04/29 08:57:53;;;;;;;5.53;3.98;;;;;;;13.46;45.72;100784.23;1790100;78;21136;-42
2021/04/29 09:00:22;;;;;;;6.67;4.12;;;;;;;13.48;46.37;100781.43;1789577;78;21148;-49
2021/04/29 09:02:52;;;;;;;8.53;5.25;;;;;;;13.51;45.88;100786.61;1785531;78;21117;-50
2021/04/29 09:05:23;;;;;;;4.50;3.67;;;;;;;13.50;45.80;100780.37;1725095;80;21170;-45
2021/04/29 09:08:07;;;;;;;6.67;4.22;;;;;;;13.50;46.00;100772.33;1724431;81;21145;-42
2021/04/29 09:10:41;;;;;;;6.67;3.25;;;;;;;13.51;45.80;100769.20;1735423;81;21177;-43
2021/04/29 09:13:24;;;;;;;4.85;3.47;;;;;;;13.51;44.62;100769.20;1729672;81;21156;-43
2021/04/29 09:15:52;;;;;;;5.25;2.80;;;;;;;13.49;44.67;100761.25;1728958;81;21133;-44
2021/04/29 09:18:20;;;;;;;6.60;3.50;;;;;;;13.50;44.70;100759.42;1731823;81;21523;-47
2021/04/29 09:21:02;;;;;;;7.50;4.28;;;;;;;13.55;45.96;100762.66;1729891;81;21164;-43
2021/04/29 09:23:32;;;;;;;7.15;3.30;;;;;;;13.61;45.12;100757.76;1734012;81;21464;-45
2021/04/29 09:26:04;;;;;;;4.95;3.17;;;;;;;13.71;45.83;100745.06;1735525;81;21165;-44
2021/04/29 09:28:46;;;;;;;4.75;3.10;;;;;;;13.78;44.16;100745.03;1734542;81;21851;-44
2021/04/29 09:31:24;;;;;;;3.70;2.60;;;;;;;13.79;43.61;100739.58;1730529;81;21160;-43
2021/04/29 09:33:54;;;;;;;6.20;3.00;;;;;;;13.79;43.86;100733.36;1734363;81;21429;-47
2021/04/29 09:36:34;;;;;;;4.67;3.33;;;;;;;13.82;44.09;100727.30;1733450;81;21180;-45
2021/04/29 09:39:18;;;;;;;4.53;2.77;;;;;;;13.89;44.34;100725.56;1730718;81;21121;-42
2021/04/29 09:41:48;;;;;;;5.30;2.75;;;;;;;13.94;43.76;100727.44;1683534;83;21772;-48
2021/04/29 09:44:42;;;;;;;6.97;3.80;;;;;;;13.97;43.55;100712.48;1778929;78;28146;-43
2021/04/29 09:47:11;;;;;;;4.78;2.30;;;;;;;13.98;44.95;100716.38;1740508;80;21184;-42
2021/04/29 09:49:39;;;;;;;7.97;2.27;;;;;;;14.09;44.52;100711.63;1746564;79;21295;-45
2021/04/29 09:52:20;;;;;;;3.62;2.77;;;;;;;14.18;44.01;100702.08;1730955;81;21213;-44
2021/04/29 09:54:48;;;;;;;;;;;;;;;14.24;44.37;100709.22;1743865;80;21201;-42
2021/04/29 09:57:25;;;;;;;7.10;3.05;;;;;;;14.29;43.39;100705.73;1735559;80;20160;-46
2021/04/29 09:59:58;;;;;;;7.15;2.65;;;;;;;14.33;43.99;100699.66;1732224;81;21538;-45
2021/04/29 10:02:26;;;;;;;2.92;2.15;;;;;;;14.40;44.04;100705.45;1740667;80;21193;-40
2021/04/29 10:04:53;;;;;;;4.62;2.12;;;;;;;14.46;43.71;100699.64;1737936;80;21137;-41
2021/04/29 10:07:21;;;;;;;4.83;4.25;;;;;;;14.52;44.03;100691.17;1741401;80;21652;-43
2021/04/29 10:09:49;;;;;;;5.17;3.05;;;;;;;14.60;42.95;100691.98;1727956;80;21334;-43
2021/04/29 10:12:19;;;;;;;4.72;2.47;;;;;;;14.62;43.30;100686.89;1722888;81;21197;-42
2021/04/29 10:14:51;;;;;;;3.65;2.77;;;;;;;14.67;43.75;100683.88;1736340;80;21307;-40
2021/04/29 10:17:20;;;;;;;5.12;2.92;;;;;;;14.74;43.10;100682.92;1731658;80;21653;-41
2021/04/29 10:19:51;;;;;;;6.05;3.12;;;;;;;14.80;42.95;100679.81;1743746;80;21525;-46
2021/04/29 10:22:19;;;;;;;5.90;3.40;;;;;;;14.86;44.07;100673.48;1712311;81;21137;-45
2021/04/29 10:24:47;;;;;;;6.55;3.12;;;;;;;14.94;43.63;100675.61;1735256;80;21160;-42
2021/04/29 10:27:25;;;;;;;4.78;3.12;;;;;;;15.01;42.66;100669.31;1751273;80;21303;-43
2021/04/29 10:30:08;;;;;;;4.50;3.05;;;;;;;15.04;42.29;100672.61;1729351;80;21141;-45
2021/04/29 10:32:36;;;;;;;11.12;3.47;;;;;;;15.00;41.68;100663.09;1731697;80;21173;-46
2021/04/29 10:35:20;;;;;;;7.28;3.58;;;;;;;14.96;42.75;100656.22;1744052;80;21165;-44
2021/04/29 10:38:00;;;;;;;5.72;3.40;;;;;;;14.97;41.93;100655.73;1747728;80;21160;-43
2021/04/29 10:40:39;;;;;;;5.10;3.25;;;;;;;14.95;42.07;100650.49;1735420;80;21186;-45
2021/04/29 10:43:08;;;;;;;5.80;3.58;;;;;;;14.93;41.93;100646.56;1733496;80;21145;-45
2021/04/29 10:45:36;;;;;;;5.53;4.50;;;;;;;14.95;44.26;100651.84;1718521;80;21169;-46
2021/04/29 10:48:10;;;;;;;4.42;3.30;;;;;;;15.03;44.21;100649.92;1748403;80;21216;-45
2021/04/29 10:50:47;;;;;;;4.65;3.45;;;;;;;15.11;42.65;100640.80;1748822;80;21169;-47
2021/04/29 10:53:27;;;;;;;8.18;2.75;;;;;;;15.16;42.18;100643.99;1745040;80;21125;-47
2021/04/29 10:56:08;;;;;;;5.40;2.98;;;;;;;15.18;41.51;100638.52;1748043;80;22006;-47
2021/04/29 10:58:36;;;;;;;4.20;2.47;;;;;;;15.20;41.23;100638.78;1740256;80;21165;-45
2021/04/29 11:01:17;;;;;;;3.70;2.60;;;;;;;15.21;41.23;100631.57;1748112;80;21180;-46
2021/04/29 11:03:50;;;;;;;3.30;2.42;;;;;;;15.21;41.44;100625.70;1735487;80;21205;-46
2021/04/29 11:06:30;;;;;;;4.40;2.80;;;;;;;15.26;41.42;100624.02;1720732;80;21610;-45
2021/04/29 11:08:58;;;;;;;4.30;2.72;;;;;;;15.30;41.17;100619.64;1729334;81;21232;-46
2021/04/29 11:11:36;;;;;;;3.15;2.20;;;;;;;15.31;40.31;100622.69;1677219;84;21918;-48
2021/04/29 11:14:10;;;;;;;3.85;2.27;;;;;;;15.34;40.91;100617.08;1696805;82;21181;-47
2021/04/29 11:16:59;;;;;;;3.35;2.70;;;;;;;15.38;40.89;100619.06;1688032;82;21247;-45
2021/04/29 11:19:43;;;;;;;3.65;2.75;;;;;;;15.43;41.47;100622.25;1695442;82;21213;-50
2021/04/29 11:22:21;;;;;;;4.40;2.85;;;;;;;15.52;40.22;100622.02;1700309;82;21580;-46
2021/04/29 11:24:49;;;;;;;5.70;2.60;;;;;;;15.55;40.30;100619.97;1692423;82;21180;-44
2021/04/29 11:27:25;;;;;;;3.72;3.05;;;;;;;15.61;40.71;100623.16;1691686;83;21175;-45
2021/04/29 11:30:02;;;;;;;3.90;2.98;;;;;;;15.67;40.28;100618.14;1688421;82;21166;-45
2021/04/29 11:32:32;;;;;;;4.95;3.17;;;;;;;15.72;40.46;100613.33;1702150;82;21434;-43
2021/04/29 11:35:01;;;;;;;6.33;3.75;;;;;;;15.77;40.97;100619.66;1702322;82;21181;-48
2021/04/29 11:37:41;;;;;;;4.12;2.87;;;;;;;15.79;40.52;100617.71;1701894;82;21212;-45
2021/04/29 11:40:09;;;;;;;3.08;2.47;;;;;;;15.77;40.48;100604.88;1683722;83;21192;-45
2021/04/29 11:42:37;;;;;;;6.50;3.80;;;;;;;15.76;40.54;100602.68;1720694;81;21152;-46
2021/04/29 11:45:15;;;;;;;4.03;2.90;;;;;;;15.78;40.69;100595.85;1676514;83;21189;-49
2021/04/29 11:48:12;;;;;;;6.20;2.85;;;;;;;15.82;41.25;100595.95;1701439;82;21812;-45